Time;durP1;ratioP1;P1;durP2;ratioP2;P2;SDS_P1;SDS_P2;PMS_P1;PMS_P2;Temp;Humidity;BMP_temperature;BMP_pressure;BME280_temperature;BME280_humidity;BME280_pressure;Samples;Min_cycle;Max_cycle;Signal;HPM_P1;HPM_P2
2023/06/10 00:00:59;;;;;;;1.00;0.77;;;18.50;99.90;;;;;;7405514;19;19936;-74
2023/06/10 00:03:29;;;;;;;0.70;0.70;;;18.10;99.90;;;;;;7406666;19;19923;-75
2023/06/10 00:06:05;;;;;;;0.70;0.70;;;18.20;99.90;;;;;;7405909;19;19914;-74
2023/06/10 00:08:34;;;;;;;1.27;0.90;;;18.10;99.90;;;;;;7405058;19;19914;-74
2023/06/10 00:11:05;;;;;;;1.10;1.00;;;18.10;99.90;;;;;;7406536;19;19932;-74
2023/06/10 00:13:34;;;;;;;0.80;0.80;;;17.90;99.90;;;;;;7404196;19;19935;-74
2023/06/10 00:16:06;;;;;;;0.88;0.80;;;18.00;99.90;;;;;;7405312;19;19939;-74
2023/06/10 00:18:36;;;;;;;1.48;0.90;;;17.80;99.90;;;;;;7405984;19;19943;-74
2023/06/10 00:21:06;;;;;;;1.42;0.85;;;17.80;99.90;;;;;;7406565;19;19922;-74
2023/06/10 00:23:37;;;;;;;0.65;0.65;;;17.70;99.90;;;;;;7404791;19;19947;-75
2023/06/10 00:26:07;;;;;;;1.05;0.90;;;17.70;99.90;;;;;;7405412;19;19939;-74
2023/06/10 00:28:36;;;;;;;0.90;0.80;;;17.80;99.90;;;;;;7402991;19;19939;-74
2023/06/10 00:31:09;;;;;;;1.08;0.90;;;17.60;99.90;;;;;;7405692;19;19919;-74
2023/06/10 00:33:38;;;;;;;0.90;0.90;;;17.60;99.90;;;;;;7401600;19;20427;-74
2023/06/10 00:36:09;;;;;;;1.52;0.70;;;17.60;99.90;;;;;;7404365;19;19937;-74
2023/06/10 00:38:40;;;;;;;1.00;0.75;;;17.60;99.90;;;;;;7406439;19;19918;-75
2023/06/10 00:41:09;;;;;;;1.52;1.10;;;17.40;99.90;;;;;;7405225;19;20019;-74
2023/06/10 00:43:38;;;;;;;1.00;0.65;;;17.70;99.90;;;;;;7404699;19;20280;-75
2023/06/10 00:46:12;;;;;;;1.10;1.00;;;17.60;99.90;;;;;;7404799;19;19981;-74
2023/06/10 00:48:46;;;;;;;;;;;17.40;99.90;;;;;;7408612;19;19943;-74
2023/06/10 00:51:15;;;;;;;0.90;0.88;;;17.40;99.90;;;;;;7404526;19;19926;-75
2023/06/10 00:53:45;;;;;;;2.92;0.98;;;17.10;99.90;;;;;;7402205;19;19930;-74
2023/06/10 00:56:16;;;;;;;1.35;0.80;;;17.30;99.90;;;;;;7403970;19;19914;-74
2023/06/10 00:58:45;;;;;;;1.20;0.70;;;17.10;99.90;;;;;;7404385;19;19923;-75
2023/06/10 01:01:18;;;;;;;1.05;0.95;;;17.10;99.90;;;;;;7405120;19;20344;-74
2023/06/10 01:03:50;;;;;;;1.33;1.00;;;16.90;99.90;;;;;;7403924;19;19935;-74
2023/06/10 01:06:33;;;;;;;0.80;0.70;;;16.90;99.90;;;;;;7403560;19;19925;-73
2023/06/10 01:09:09;;;;;;;2.00;0.80;;;16.90;99.90;;;;;;7404897;19;20254;-74
2023/06/10 01:11:44;;;;;;;1.13;0.85;;;16.70;99.90;;;;;;7403340;19;19918;-74
2023/06/10 01:14:14;;;;;;;1.25;1.00;;;16.40;99.90;;;;;;7404034;19;19918;-74
2023/06/10 01:16:48;;;;;;;1.63;0.90;;;16.60;99.90;;;;;;7403709;19;19919;-74
2023/06/10 01:19:17;;;;;;;1.00;0.80;;;16.60;99.90;;;;;;7404591;19;19926;-74
2023/06/10 01:21:50;;;;;;;1.23;0.93;;;16.40;99.90;;;;;;7403205;19;19918;-73
2023/06/10 01:24:21;;;;;;;0.85;0.82;;;16.50;99.90;;;;;;7403237;19;19926;-74
2023/06/10 01:26:54;;;;;;;1.17;0.70;;;16.40;99.90;;;;;;7403612;19;19915;-74
2023/06/10 01:29:30;;;;;;;1.50;0.95;;;16.40;99.90;;;;;;7402593;19;19922;-74
2023/06/10 01:32:14;;;;;;;1.30;0.88;;;16.20;99.90;;;;;;7404673;19;19938;-74
2023/06/10 01:34:46;;;;;;;1.20;0.80;;;16.20;99.90;;;;;;7401544;19;19942;-74
2023/06/10 01:37:22;;;;;;;1.05;0.85;;;16.30;99.90;;;;;;7402801;19;20354;-73
2023/06/10 01:39:53;;;;;;;0.80;0.80;;;16.40;99.90;;;;;;7402739;19;19958;-74
2023/06/10 01:42:23;;;;;;;1.95;0.80;;;15.90;99.90;;;;;;7401349;19;20352;-76
2023/06/10 01:44:52;;;;;;;1.15;0.80;;;16.00;99.90;;;;;;7403240;19;19922;-76
2023/06/10 01:47:21;;;;;;;1.23;0.75;;;15.90;99.90;;;;;;7404565;19;19977;-76
2023/06/10 01:49:50;;;;;;;1.08;0.80;;;15.80;99.90;;;;;;7402454;19;19935;-76
2023/06/10 01:52:22;;;;;;;1.33;0.80;;;15.80;99.90;;;;;;7401717;19;19978;-76
2023/06/10 01:54:51;;;;;;;1.38;0.80;;;15.60;99.90;;;;;;7401971;19;19971;-76
2023/06/10 01:57:21;;;;;;;1.35;0.80;;;15.60;99.90;;;;;;7401719;19;19922;-76
2023/06/10 01:59:50;;;;;;;0.95;0.70;;;15.70;99.90;;;;;;7402490;19;19922;-76
2023/06/10 02:02:21;;;;;;;1.42;0.90;;;15.60;99.90;;;;;;7400819;19;20336;-76
2023/06/10 02:04:50;;;;;;;1.30;0.73;;;15.40;99.90;;;;;;7402366;19;19970;-76
2023/06/10 02:07:22;;;;;;;1.67;0.88;;;15.60;99.90;;;;;;7401815;19;19984;-75
2023/06/10 02:09:51;;;;;;;0.82;0.80;;;15.30;99.90;;;;;;7402600;19;20399;-75
2023/06/10 02:12:20;;;;;;;1.42;0.80;;;15.50;99.90;;;;;;7401893;19;19910;-76
2023/06/10 02:14:49;;;;;;;1.33;0.88;;;15.50;99.90;;;;;;7402449;19;19946;-76
2023/06/10 02:17:18;;;;;;;1.58;0.90;;;15.30;99.90;;;;;;7400259;19;19930;-77
2023/06/10 02:19:52;;;;;;;1.05;0.70;;;15.30;99.90;;;;;;7402348;19;19982;-76
2023/06/10 02:22:26;;;;;;;1.33;0.75;;;15.30;99.90;;;;;;7401477;19;19952;-76
2023/06/10 02:24:55;;;;;;;0.90;0.70;;;15.30;99.90;;;;;;7402284;19;20348;-74
2023/06/10 02:27:40;;;;;;;1.00;0.80;;;15.20;99.90;;;;;;7400519;19;19915;-74
2023/06/10 02:30:12;;;;;;;1.85;0.95;;;15.10;99.90;;;;;;7403240;19;19923;-74
2023/06/10 02:32:41;;;;;;;;;;;15.00;99.90;;;;;;7409572;19;19947;-74
2023/06/10 02:35:13;;;;;;;1.90;1.00;;;14.90;99.90;;;;;;7405187;19;19918;-75
2023/06/10 02:37:45;;;;;;;1.38;0.90;;;14.90;99.90;;;;;;7409554;19;19918;-74
2023/06/10 02:40:14;;;;;;;1.00;0.77;;;15.00;99.90;;;;;;7407754;19;20749;-74
2023/06/10 02:42:43;;;;;;;1.73;0.70;;;14.80;99.90;;;;;;7407972;19;19931;-74
2023/06/10 02:45:13;;;;;;;2.92;1.00;;;14.90;99.90;;;;;;7408189;19;19946;-74
2023/06/10 02:47:42;;;;;;;1.00;0.75;;;14.80;99.90;;;;;;7408866;19;19922;-76
2023/06/10 02:50:12;;;;;;;1.20;0.73;;;14.80;99.90;;;;;;7409114;19;19927;-76
2023/06/10 02:52:40;;;;;;;1.20;0.90;;;14.80;99.90;;;;;;7408076;19;20283;-76
2023/06/10 02:55:15;;;;;;;1.42;0.90;;;14.70;99.90;;;;;;7403732;19;19953;-76
2023/06/10 02:57:45;;;;;;;1.02;0.80;;;14.70;99.90;;;;;;7409631;19;19922;-76
2023/06/10 03:00:15;;;;;;;1.27;0.80;;;14.60;99.90;;;;;;7407861;19;19919;-76
2023/06/10 03:02:45;;;;;;;1.00;0.65;;;14.80;99.90;;;;;;7407676;19;20257;-76
2023/06/10 03:05:14;;;;;;;1.50;0.85;;;14.50;99.90;;;;;;7407333;19;20283;-76
2023/06/10 03:07:56;;;;;;;0.77;0.60;;;14.70;99.90;;;;;;7406823;19;19925;-76
2023/06/10 03:10:28;;;;;;;1.60;0.90;;;14.40;99.90;;;;;;7407945;19;19919;-76
2023/06/10 03:12:57;;;;;;;1.27;0.65;;;14.50;99.90;;;;;;7405657;19;19935;-76
2023/06/10 03:15:28;;;;;;;1.52;0.90;;;14.60;99.90;;;;;;7407367;19;19984;-74
2023/06/10 03:17:58;;;;;;;1.17;0.75;;;14.60;99.90;;;;;;7406979;19;19922;-74
2023/06/10 03:20:27;;;;;;;1.70;0.88;;;14.50;99.90;;;;;;7408591;19;19922;-74
2023/06/10 03:23:00;;;;;;;1.30;1.00;;;14.70;99.90;;;;;;7406791;19;19911;-74
2023/06/10 03:25:33;;;;;;;3.00;1.13;;;14.60;99.90;;;;;;7407228;19;19915;-74
2023/06/10 03:28:02;;;;;;;1.00;0.57;;;14.50;99.90;;;;;;7408033;19;20367;-73
2023/06/10 03:30:32;;;;;;;1.13;0.70;;;14.30;99.90;;;;;;7407959;19;20356;-73
2023/06/10 03:33:05;;;;;;;0.70;0.70;;;13.40;99.90;;;;;;7405057;19;20356;-74
2023/06/10 03:35:35;;;;;;;0.98;0.73;;;14.40;99.90;;;;;;7402388;19;19915;-74
2023/06/10 03:38:10;;;;;;;1.73;0.80;;;14.30;99.90;;;;;;7407070;19;19923;-73
2023/06/10 03:40:43;;;;;;;0.95;0.85;;;14.40;99.90;;;;;;7405859;19;19918;-73
2023/06/10 03:43:17;;;;;;;1.98;0.73;;;14.40;99.90;;;;;;7404493;19;19936;-74
2023/06/10 03:45:46;;;;;;;1.38;0.90;;;14.50;99.90;;;;;;7405257;19;19918;-73
2023/06/10 03:48:16;;;;;;;1.02;0.70;;;14.40;99.90;;;;;;7406422;19;19911;-74
2023/06/10 03:50:47;;;;;;;1.73;0.70;;;14.40;99.90;;;;;;7406997;19;20603;-73
2023/06/10 03:53:16;;;;;;;1.23;0.65;;;14.40;99.90;;;;;;7405301;19;19923;-74
2023/06/10 03:55:48;;;;;;;1.83;0.98;;;14.40;99.90;;;;;;7405722;19;19922;-74
2023/06/10 03:58:18;;;;;;;1.10;0.80;;;14.40;99.90;;;;;;7406466;19;20348;-73
2023/06/10 04:00:49;;;;;;;1.75;0.95;;;14.30;99.90;;;;;;7405934;19;20272;-73
2023/06/10 04:03:21;;;;;;;1.20;0.75;;;14.30;99.90;;;;;;7406253;19;19977;-73
2023/06/10 04:05:50;;;;;;;1.88;0.77;;;14.30;99.90;;;;;;7405486;19;20256;-73
2023/06/10 04:08:20;;;;;;;2.63;0.85;;;14.30;99.90;;;;;;7406601;19;20305;-74
2023/06/10 04:10:52;;;;;;;1.67;0.70;;;14.40;99.90;;;;;;7406361;19;19925;-73
2023/06/10 04:13:21;;;;;;;1.00;0.80;;;14.40;99.90;;;;;;7403022;19;19931;-74
2023/06/10 04:15:51;;;;;;;1.20;0.90;;;14.30;99.90;;;;;;7405189;19;19919;-74
2023/06/10 04:18:21;;;;;;;1.38;0.90;;;14.30;99.90;;;;;;7405872;19;19933;-74
2023/06/10 04:20:50;;;;;;;2.45;0.98;;;14.40;99.90;;;;;;7405290;19;19948;-73
2023/06/10 04:23:20;;;;;;;1.33;0.90;;;14.30;99.90;;;;;;7404296;19;19981;-74
2023/06/10 04:25:52;;;;;;;1.75;1.40;;;14.60;99.90;;;;;;7403250;19;19923;-74
2023/06/10 04:28:21;;;;;;;1.30;0.77;;;14.30;99.90;;;;;;7405917;19;19923;-73
2023/06/10 04:30:51;;;;;;;2.45;1.17;;;14.40;99.90;;;;;;7405788;19;20233;-75
2023/06/10 04:33:20;;;;;;;2.30;0.90;;;14.50;99.90;;;;;;7403770;19;19931;-75
2023/06/10 04:35:49;;;;;;;1.13;0.88;;;14.70;99.90;;;;;;7405619;19;19934;-76
2023/06/10 04:38:18;;;;;;;2.15;1.25;;;14.70;99.90;;;;;;7404222;19;19918;-76
2023/06/10 04:40:47;;;;;;;2.03;1.15;;;14.40;99.90;;;;;;7404951;19;20310;-76
2023/06/10 04:43:19;;;;;;;1.55;0.98;;;14.70;99.90;;;;;;7403906;19;19915;-76
2023/06/10 04:45:49;;;;;;;1.77;1.08;;;14.60;99.90;;;;;;7405420;19;19923;-76
2023/06/10 04:48:18;;;;;;;1.88;1.08;;;14.70;99.90;;;;;;7406054;19;19939;-76
2023/06/10 04:50:49;;;;;;;1.15;0.95;;;14.70;99.90;;;;;;7405396;19;19914;-75
2023/06/10 04:53:20;;;;;;;1.58;0.70;;;14.70;99.90;;;;;;7403697;19;19990;-74
2023/06/10 04:55:49;;;;;;;1.80;0.93;;;14.80;99.90;;;;;;7404621;19;19989;-74
2023/06/10 04:58:23;;;;;;;1.77;0.93;;;14.80;99.90;;;;;;7404634;19;19922;-74
2023/06/10 05:00:52;;;;;;;2.70;1.15;;;14.70;99.90;;;;;;7404510;19;19986;-73
2023/06/10 05:03:25;;;;;;;1.08;0.93;;;14.80;99.90;;;;;;7404633;19;19925;-74
2023/06/10 05:05:54;;;;;;;1.13;0.80;;;14.90;99.90;;;;;;7403213;19;19914;-74
2023/06/10 05:08:25;;;;;;;1.63;0.90;;;15.00;99.90;;;;;;7405066;19;19918;-74
2023/06/10 05:11:14;;;;;;;2.10;1.25;;;14.80;99.90;;;;;;7402242;19;20263;-75
2023/06/10 05:14:06;;;;;;;1.20;0.90;;;14.90;99.90;;;;;;7398928;19;19942;-74
2023/06/10 05:16:55;;;;;;;1.42;0.75;;;15.00;99.90;;;;;;7402717;19;19922;-75
2023/06/10 05:19:44;;;;;;;1.13;0.88;;;15.10;99.90;;;;;;7403089;19;19936;-77
2023/06/10 05:22:34;;;;;;;1.67;1.02;;;15.10;99.90;;;;;;7401097;19;19952;-76
2023/06/10 05:25:23;;;;;;;1.58;1.00;;;15.00;99.90;;;;;;7402535;19;19915;-77
2023/06/10 05:28:12;;;;;;;1.48;1.00;;;15.10;99.90;;;;;;7402221;19;19919;-76
2023/06/10 05:30:48;;;;;;;1.23;0.85;;;15.00;99.90;;;;;;7401988;19;20403;-77
2023/06/10 05:33:17;;;;;;;;;;;15.10;99.90;;;;;;7405687;19;19922;-76
2023/06/10 05:35:46;;;;;;;2.05;1.02;;;15.00;99.90;;;;;;7402527;19;19919;-76
2023/06/10 05:38:15;;;;;;;1.92;1.05;;;15.10;99.90;;;;;;7402928;19;20341;-76
2023/06/10 05:40:44;;;;;;;2.03;1.30;;;14.90;99.90;;;;;;7403002;19;19914;-76
2023/06/10 05:43:14;;;;;;;2.22;1.02;;;15.10;99.90;;;;;;7402617;19;19960;-76
2023/06/10 05:45:43;;;;;;;1.45;0.90;;;15.00;99.90;;;;;;7401442;19;19942;-76
2023/06/10 05:48:14;;;;;;;1.88;1.10;;;15.10;99.90;;;;;;7403707;19;19918;-75
2023/06/10 05:50:47;;;;;;;1.00;0.90;;;15.20;99.90;;;;;;7403753;19;19922;-76
2023/06/10 05:53:17;;;;;;;2.97;1.05;;;15.20;99.90;;;;;;7403317;19;20324;-76
2023/06/10 05:55:47;;;;;;;1.00;0.90;;;15.20;99.90;;;;;;7399759;19;19919;-76
2023/06/10 05:58:16;;;;;;;1.23;0.82;;;15.30;99.90;;;;;;7403732;19;19919;-76
2023/06/10 06:00:46;;;;;;;1.00;0.90;;;15.20;99.90;;;;;;7402508;19;19919;-76
2023/06/10 06:03:18;;;;;;;1.05;0.90;;;15.20;99.90;;;;;;7403750;19;20403;-76
2023/06/10 06:05:47;;;;;;;1.73;1.20;;;15.50;99.90;;;;;;7402956;19;20258;-76
2023/06/10 06:08:18;;;;;;;2.05;1.08;;;15.30;99.90;;;;;;7407369;19;19926;-76
2023/06/10 06:10:47;;;;;;;1.88;0.90;;;15.40;99.90;;;;;;7409703;19;20348;-76
2023/06/10 06:13:16;;;;;;;2.97;0.90;;;15.20;99.90;;;;;;7406865;19;19922;-75
2023/06/10 06:15:53;;;;;;;1.77;1.10;;;15.30;99.90;;;;;;7409269;19;20292;-75
2023/06/10 06:18:24;;;;;;;1.20;0.90;;;15.40;99.90;;;;;;7409782;19;19925;-76
2023/06/10 06:20:53;;;;;;;;;;;15.30;99.90;;;;;;7410705;19;20376;-74
2023/06/10 06:23:22;;;;;;;1.38;0.90;;;15.40;99.90;;;;;;7407383;19;19919;-76
2023/06/10 06:25:52;;;;;;;1.15;1.05;;;15.50;99.90;;;;;;7407350;19;20275;-75
2023/06/10 06:28:22;;;;;;;1.25;0.80;;;15.40;99.90;;;;;;7407191;19;19930;-74
2023/06/10 06:30:51;;;;;;;1.60;0.90;;;15.50;99.90;;;;;;7409102;19;19943;-74
2023/06/10 06:33:20;;;;;;;1.35;0.95;;;15.70;99.90;;;;;;7408056;19;20265;-74
2023/06/10 06:35:52;;;;;;;1.65;1.10;;;15.70;99.90;;;;;;7408254;19;19990;-75
2023/06/10 06:38:21;;;;;;;1.60;0.98;;;15.70;99.90;;;;;;7408576;19;19911;-74
2023/06/10 06:40:51;;;;;;;1.13;0.88;;;15.70;99.90;;;;;;7408905;19;19958;-74
2023/06/10 06:43:20;;;;;;;1.05;0.80;;;15.70;99.90;;;;;;7407436;19;19923;-75
2023/06/10 06:45:49;;;;;;;0.85;0.70;;;15.90;99.90;;;;;;7408548;19;19923;-74
2023/06/10 06:48:18;;;;;;;1.15;0.90;;;15.90;99.90;;;;;;7407354;19;20237;-75
2023/06/10 06:50:47;;;;;;;1.08;0.70;;;15.90;99.90;;;;;;7409414;19;19951;-75
2023/06/10 06:53:19;;;;;;;1.38;0.82;;;16.00;99.90;;;;;;7407478;19;19941;-75
2023/06/10 06:55:48;;;;;;;1.27;0.93;;;16.00;99.90;;;;;;7405187;19;19919;-75
2023/06/10 06:58:17;;;;;;;1.15;0.90;;;15.90;99.90;;;;;;7407310;19;20447;-74
2023/06/10 07:00:47;;;;;;;2.75;0.98;;;16.10;99.90;;;;;;7407567;19;19926;-75
2023/06/10 07:03:16;;;;;;;1.38;1.10;;;16.10;99.90;;;;;;7407668;19;20245;-75
2023/06/10 07:05:47;;;;;;;1.90;0.90;;;16.20;99.90;;;;;;7407928;19;19927;-74
2023/06/10 07:08:18;;;;;;;1.85;0.88;;;16.20;99.90;;;;;;7407223;19;19927;-74
2023/06/10 07:10:51;;;;;;;1.55;1.05;;;16.00;99.90;;;;;;7406172;19;19918;-74
2023/06/10 07:13:21;;;;;;;1.85;0.90;;;16.40;99.90;;;;;;7407182;19;20298;-74
2023/06/10 07:15:50;;;;;;;1.58;0.80;;;16.30;99.90;;;;;;7405530;19;20017;-74
2023/06/10 07:18:19;;;;;;;1.23;0.82;;;16.30;99.90;;;;;;7407357;19;19911;-75
2023/06/10 07:20:48;;;;;;;1.10;0.80;;;16.40;99.90;;;;;;7406092;19;20433;-74
2023/06/10 07:23:25;;;;;;;1.00;0.75;;;16.50;99.90;;;;;;7407108;19;19948;-75
2023/06/10 07:25:53;;;;;;;;;;;16.60;99.90;;;;;;7407709;19;19961;-75
2023/06/10 07:28:23;;;;;;;1.98;0.90;;;16.60;99.90;;;;;;7407716;19;19928;-74
2023/06/10 07:30:52;;;;;;;1.70;0.93;;;16.50;99.90;;;;;;7406397;19;19919;-75
2023/06/10 07:33:22;;;;;;;1.15;0.70;;;16.70;99.90;;;;;;7407032;19;19929;-75
2023/06/10 07:35:51;;;;;;;1.45;0.80;;;16.80;99.90;;;;;;7403764;19;19941;-74
2023/06/10 07:38:24;;;;;;;1.58;0.90;;;16.90;99.90;;;;;;7407173;19;19910;-75
2023/06/10 07:40:53;;;;;;;2.65;0.90;;;17.00;99.90;;;;;;7405546;19;20723;-75
2023/06/10 07:43:23;;;;;;;1.02;0.73;;;16.90;99.90;;;;;;7407406;19;19926;-75
2023/06/10 07:45:52;;;;;;;1.02;0.77;;;16.90;99.90;;;;;;7407798;19;19915;-75
2023/06/10 07:48:22;;;;;;;1.52;0.95;;;17.10;99.90;;;;;;7404271;19;19918;-75
2023/06/10 07:50:51;;;;;;;1.27;0.75;;;17.10;99.90;;;;;;7404794;19;19928;-75
2023/06/10 07:53:20;;;;;;;1.20;0.88;;;17.20;99.90;;;;;;7405279;19;19919;-74
2023/06/10 07:55:53;;;;;;;1.10;0.75;;;17.40;99.90;;;;;;7401861;19;19922;-75
2023/06/10 07:58:22;;;;;;;1.70;0.73;;;17.50;99.90;;;;;;7404550;19;19923;-75
2023/06/10 08:00:52;;;;;;;1.92;0.63;;;17.50;99.90;;;;;;7405621;19;20281;-75
2023/06/10 08:03:21;;;;;;;1.90;0.70;;;17.50;99.90;;;;;;7405067;19;19940;-75
2023/06/10 08:05:51;;;;;;;1.05;0.80;;;16.60;99.90;;;;;;7406174;19;19919;-75
2023/06/10 08:08:20;;;;;;;2.63;0.65;;;17.60;99.90;;;;;;7406064;19;19995;-75
2023/06/10 08:10:51;;;;;;;1.10;0.60;;;17.80;99.90;;;;;;7406741;19;19921;-75
2023/06/10 08:13:20;;;;;;;;;;;18.00;99.90;;;;;;7407435;19;19939;-75
2023/06/10 08:15:50;;;;;;;1.70;0.80;;;17.80;99.90;;;;;;7405052;19;19915;-75
2023/06/10 08:18:20;;;;;;;1.33;0.80;;;18.00;99.90;;;;;;7405837;19;19962;-75
2023/06/10 08:20:49;;;;;;;1.58;0.90;;;18.10;99.90;;;;;;7406052;19;19914;-75
2023/06/10 08:23:19;;;;;;;1.60;0.70;;;18.10;99.90;;;;;;7406337;19;20270;-75
2023/06/10 08:25:48;;;;;;;1.30;0.70;;;18.20;99.90;;;;;;7403166;19;19918;-75
2023/06/10 08:28:21;;;;;;;1.67;0.60;;;18.30;99.90;;;;;;7403163;19;20338;-75
2023/06/10 08:30:50;;;;;;;1.13;0.80;;;18.40;99.90;;;;;;7406344;19;19939;-75
2023/06/10 08:33:20;;;;;;;0.85;0.50;;;18.60;99.90;;;;;;7403816;19;19915;-76
2023/06/10 08:35:49;;;;;;;0.85;0.70;;;18.50;99.90;;;;;;7404477;19;20003;-75
2023/06/10 08:38:21;;;;;;;;;;;18.60;99.90;;;;;;7407166;19;19919;-75
2023/06/10 08:40:50;;;;;;;0.93;0.85;;;18.70;99.90;;;;;;7405640;19;19996;-75
2023/06/10 08:43:32;;;;;;;1.67;0.98;;;18.70;99.90;;;;;;7405404;19;19922;-75
2023/06/10 08:46:03;;;;;;;0.82;0.60;;;18.70;99.90;;;;;;7404936;19;19951;-75
2023/06/10 08:48:40;;;;;;;1.40;0.90;;;17.90;99.90;;;;;;7404421;19;19921;-75
2023/06/10 08:51:09;;;;;;;0.65;0.65;;;18.80;99.90;;;;;;7405614;19;19922;-75
2023/06/10 08:53:45;;;;;;;2.13;0.90;;;19.00;99.90;;;;;;7405548;19;19982;-75
2023/06/10 08:56:15;;;;;;;2.05;1.00;;;19.00;99.90;;;;;;7402806;19;19915;-75
2023/06/10 08:58:48;;;;;;;0.80;0.70;;;18.90;99.90;;;;;;7404920;19;19922;-75
2023/06/10 09:01:19;;;;;;;1.60;0.80;;;19.00;99.90;;;;;;7404815;19;19926;-75
2023/06/10 09:03:48;;;;;;;1.27;0.77;;;19.10;99.90;;;;;;7405251;19;19914;-75
2023/06/10 09:06:19;;;;;;;1.08;0.80;;;19.20;99.90;;;;;;7405303;19;20455;-75
2023/06/10 09:08:48;;;;;;;1.13;0.80;;;19.20;99.90;;;;;;7404803;19;19918;-75
2023/06/10 09:11:18;;;;;;;1.27;0.73;;;19.40;99.90;;;;;;7405184;19;19922;-75
2023/06/10 09:13:50;;;;;;;3.53;0.88;;;19.40;99.90;;;;;;7403467;19;20002;-75
2023/06/10 09:16:19;;;;;;;1.35;0.80;;;19.50;99.90;;;;;;7401835;19;19925;-75
2023/06/10 09:18:54;;;;;;;1.67;0.70;;;19.60;99.90;;;;;;7403944;19;19953;-75
2023/06/10 09:21:24;;;;;;;1.00;0.63;;;19.80;99.90;;;;;;7403844;19;19922;-75
2023/06/10 09:23:54;;;;;;;2.08;0.60;;;19.80;99.90;;;;;;7404481;19;19943;-75
2023/06/10 09:26:31;;;;;;;1.80;0.75;;;20.00;99.90;;;;;;7404286;19;19919;-75
2023/06/10 09:29:06;;;;;;;2.10;0.70;;;20.10;99.90;;;;;;7404344;19;19919;-76
2023/06/10 09:31:38;;;;;;;1.35;1.08;;;20.20;99.90;;;;;;7404664;19;20311;-75
2023/06/10 09:34:11;;;;;;;1.20;0.82;;;20.20;99.90;;;;;;7403555;19;19942;-75
2023/06/10 09:36:41;;;;;;;1.42;0.75;;;20.40;99.90;;;;;;7401984;19;19914;-76
2023/06/10 09:39:17;;;;;;;1.27;0.73;;;20.40;99.90;;;;;;7402456;19;19927;-76
2023/06/10 09:41:47;;;;;;;1.58;0.88;;;20.50;99.90;;;;;;7406585;19;19915;-76
2023/06/10 09:44:24;;;;;;;1.67;0.73;;;20.60;99.90;;;;;;7409523;19;19939;-75
2023/06/10 09:46:54;;;;;;;0.82;0.60;;;20.70;99.90;;;;;;7409631;19;19918;-76
2023/06/10 09:49:23;;;;;;;0.80;0.50;;;20.90;99.90;;;;;;7407713;19;19922;-75
2023/06/10 09:51:54;;;;;;;0.95;0.70;;;20.90;99.90;;;;;;7409024;19;19922;-75
2023/06/10 09:54:24;;;;;;;2.92;1.00;;;21.10;99.90;;;;;;7408476;19;19914;-75
2023/06/10 09:56:56;;;;;;;2.00;0.75;;;21.10;99.90;;;;;;7406222;19;19922;-75
2023/06/10 09:59:36;;;;;;;1.10;0.70;;;21.40;99.90;;;;;;7408978;19;19915;-75
2023/06/10 10:02:06;;;;;;;1.17;0.73;;;21.70;99.90;;;;;;7409897;19;19942;-75
2023/06/10 10:04:38;;;;;;;0.85;0.68;;;21.50;99.90;;;;;;7410364;19;19978;-76
2023/06/10 10:07:09;;;;;;;1.65;0.93;;;21.80;99.90;;;;;;7409590;19;19919;-76
2023/06/10 10:09:46;;;;;;;1.70;0.70;;;21.80;99.90;;;;;;7408569;19;20603;-75
2023/06/10 10:15:11;;;;;;;1.70;0.70;;;21.90;99.90;;;;;;7403230;19;20371;-76
2023/06/10 10:17:47;;;;;;;1.40;0.70;;;22.10;99.90;;;;;;7409829;19;20559;-75
2023/06/10 10:20:20;;;;;;;0.93;0.60;;;22.30;99.90;;;;;;7409188;19;19925;-76
2023/06/10 10:22:53;;;;;;;1.30;0.80;;;22.30;99.90;;;;;;7408802;19;19915;-76
2023/06/10 10:25:37;;;;;;;;;;;;;;;;;;;;;
2023/06/10 10:28:26;;;;;;;0.98;0.73;;;22.70;99.90;;;;;;7409909;19;19927;-75
2023/06/10 10:31:01;;;;;;;;;;;22.60;99.90;;;;;;7411166;19;19921;-75
2023/06/10 10:33:35;;;;;;;2.13;0.82;;;22.70;99.90;;;;;;7407446;19;19950;-75
2023/06/10 10:36:07;;;;;;;1.27;0.80;;;22.80;99.90;;;;;;7406917;19;20290;-75
2023/06/10 10:38:37;;;;;;;1.75;0.95;;;23.10;99.90;;;;;;7408183;19;19922;-76
2023/06/10 10:41:10;;;;;;;1.25;0.70;;;23.10;99.90;;;;;;7408385;19;19930;-75
2023/06/10 10:43:40;;;;;;;1.15;0.88;;;23.00;99.90;;;;;;7409185;19;19921;-76
2023/06/10 10:46:15;;;;;;;1.40;0.73;;;23.20;99.90;;;;;;7408721;19;20354;-75
2023/06/10 10:48:45;;;;;;;0.85;0.70;;;23.30;99.90;;;;;;7407985;19;19925;-76
2023/06/10 10:51:14;;;;;;;1.38;0.77;;;24.30;99.90;;;;;;7407516;19;19947;-75
2023/06/10 10:53:44;;;;;;;1.80;0.70;;;23.80;99.90;;;;;;7407096;19;20328;-76
2023/06/10 10:56:21;;;;;;;1.30;0.90;;;23.70;99.90;;;;;;7406541;19;19919;-75
2023/06/10 10:59:07;;;;;;;2.00;0.80;;;23.90;99.90;;;;;;7407490;19;19915;-75
2023/06/10 11:01:48;;;;;;;1.08;0.88;;;24.00;99.90;;;;;;7407248;19;20344;-75
2023/06/10 11:04:21;;;;;;;1.80;0.90;;;23.90;99.90;;;;;;7407770;19;19930;-75
2023/06/10 11:06:56;;;;;;;0.73;0.70;;;24.30;99.90;;;;;;7408187;19;19966;-75
2023/06/10 11:09:30;;;;;;;1.20;0.90;;;22.70;99.90;;;;;;7408659;19;20301;-75
2023/06/10 11:12:01;;;;;;;1.38;0.88;;;24.30;99.90;;;;;;7406770;19;19962;-75
2023/06/10 11:14:31;;;;;;;1.65;0.98;;;24.40;99.90;;;;;;7405453;19;19910;-75
2023/06/10 11:17:03;;;;;;;1.60;0.80;;;24.50;99.90;;;;;;7404820;19;19910;-75
2023/06/10 11:19:38;;;;;;;0.82;0.80;;;24.50;99.90;;;;;;7406241;19;19919;-75
2023/06/10 11:22:18;;;;;;;1.98;1.13;;;24.70;99.90;;;;;;7407620;19;19938;-76
2023/06/10 11:25:40;;;;;;;0.88;0.80;;;25.70;99.90;;;;;;7405870;19;19918;-76
2023/06/10 11:28:21;;;;;;;2.22;0.77;;;24.80;99.90;;;;;;7407335;19;19922;-75
2023/06/10 11:31:00;;;;;;;1.25;0.90;;;25.00;99.90;;;;;;7408106;19;20336;-75
2023/06/10 11:33:33;;;;;;;2.47;0.90;;;25.00;99.90;;;;;;7407221;19;20447;-76
2023/06/10 11:36:02;;;;;;;0.80;0.80;;;25.00;99.90;;;;;;7405373;19;19918;-75
2023/06/10 11:38:31;;;;;;;1.75;0.93;;;25.20;99.90;;;;;;7406668;19;19922;-75
2023/06/10 11:41:05;;;;;;;1.88;1.08;;;25.10;99.90;;;;;;7405265;19;19918;-76
2023/06/10 11:43:37;;;;;;;1.52;0.73;;;25.30;99.90;;;;;;7407245;19;19947;-76
2023/06/10 11:46:08;;;;;;;1.10;1.00;;;25.50;99.90;;;;;;7406507;19;20264;-75
2023/06/10 11:48:51;;;;;;;1.58;0.70;;;25.60;99.90;;;;;;7406177;19;19922;-76
2023/06/10 11:51:21;;;;;;;1.27;0.90;;;25.50;99.90;;;;;;7407021;19;19923;-76
2023/06/10 11:53:52;;;;;;;;;;;25.70;99.90;;;;;;7409390;19;19925;-75
2023/06/10 11:56:28;;;;;;;0.65;0.60;;;25.60;99.90;;;;;;7404939;19;19923;-76
2023/06/10 11:59:17;;;;;;;1.63;0.80;;;25.70;99.90;;;;;;7404725;19;19915;-75
2023/06/10 12:02:06;;;;;;;1.13;0.70;;;25.30;99.90;;;;;;7405144;19;19954;-76
2023/06/10 12:05:13;;;;;;;0.95;0.80;;;25.80;99.90;;;;;;7401878;19;20312;-76
2023/06/10 12:08:11;;;;;;;1.25;0.80;;;25.90;99.90;;;;;;7404348;19;19926;-76
2023/06/10 12:11:01;;;;;;;1.35;0.73;;;26.10;99.90;;;;;;7404246;19;20280;-75
2023/06/10 12:13:51;;;;;;;1.67;0.80;;;26.40;99.90;;;;;;7403935;19;19919;-76
2023/06/10 12:16:40;;;;;;;1.80;0.75;;;26.50;99.90;;;;;;7403539;19;19915;-76
2023/06/10 12:19:29;;;;;;;0.75;0.70;;;26.80;99.90;;;;;;7404277;19;19925;-76
2023/06/10 12:22:23;;;;;;;1.20;0.80;;;26.60;99.90;;;;;;7403150;19;19910;-76
2023/06/10 12:25:14;;;;;;;1.13;0.90;;;27.80;99.90;;;;;;7404921;19;19932;-76
2023/06/10 12:28:03;;;;;;;1.10;0.93;;;26.80;99.90;;;;;;7404889;19;19919;-76
2023/06/10 12:30:35;;;;;;;1.25;0.80;;;27.10;99.90;;;;;;7406351;19;19922;-76
2023/06/10 12:33:05;;;;;;;1.25;0.70;;;27.10;99.90;;;;;;7405836;19;19929;-76
2023/06/10 12:35:35;;;;;;;1.40;0.80;;;27.30;99.90;;;;;;7402741;19;20338;-76
2023/06/10 12:38:11;;;;;;;0.60;0.60;;;27.40;99.90;;;;;;7403191;19;20248;-76
2023/06/10 12:40:43;;;;;;;1.63;0.82;;;27.50;99.80;;;;;;7405776;19;19919;-76
2023/06/10 12:43:13;;;;;;;1.30;1.02;;;27.60;99.90;;;;;;7406125;19;19919;-76
2023/06/10 12:45:45;;;;;;;1.48;0.80;;;27.50;99.80;;;;;;7405731;19;19922;-76
2023/06/10 12:48:21;;;;;;;1.33;0.70;;;27.70;99.60;;;;;;7405453;19;19970;-76
2023/06/10 12:50:55;;;;;;;2.20;0.80;;;28.00;99.50;;;;;;7406109;19;19925;-76
2023/06/10 12:53:29;;;;;;;1.90;0.90;;;28.00;99.30;;;;;;7405679;19;20313;-76
2023/06/10 12:56:02;;;;;;;2.88;0.85;;;28.00;99.10;;;;;;7403118;19;19986;-77
2023/06/10 12:58:32;;;;;;;0.63;0.60;;;27.90;99.00;;;;;;7404850;19;20012;-76
2023/06/10 13:01:04;;;;;;;1.00;0.80;;;28.30;98.90;;;;;;7405603;19;19930;-76
2023/06/10 13:03:34;;;;;;;1.42;1.10;;;28.40;98.70;;;;;;7404603;19;19919;-76
2023/06/10 13:06:06;;;;;;;1.60;0.60;;;28.30;98.40;;;;;;7405565;19;19922;-76
2023/06/10 13:08:39;;;;;;;1.10;0.70;;;28.70;98.70;;;;;;7405395;19;19929;-76
2023/06/10 13:11:09;;;;;;;0.98;0.77;;;28.70;98.40;;;;;;7404843;19;19938;-76
2023/06/10 13:13:40;;;;;;;1.10;0.80;;;28.70;97.90;;;;;;7403463;19;19919;-76
2023/06/10 13:16:10;;;;;;;0.77;0.70;;;28.80;97.90;;;;;;7404269;19;20372;-76
2023/06/10 13:18:40;;;;;;;0.95;0.63;;;28.80;97.90;;;;;;7404519;19;19935;-76
2023/06/10 13:21:11;;;;;;;1.00;0.90;;;29.00;97.60;;;;;;7403473;19;19925;-76